Time;durP1;ratioP1;P1;durP2;ratioP2;P2;SDS_P1;SDS_P2;PMS_P1;PMS_P2;Temp;Humidity;BMP_temperature;BMP_pressure;BME280_temperature;BME280_humidity;BME280_pressure;Samples;Min_cycle;Max_cycle;Signal;HPM_P1;HPM_P2
2021/08/25 00:00:23;;;;;;;9.57;5.70;;;13.70;99.90;;;;;;5061735;28;20232;-78
2021/08/25 00:02:50;;;;;;;9.43;5.77;;;13.60;99.90;;;;;;5057674;28;20197;-76
2021/08/25 00:05:17;;;;;;;8.17;5.27;;;13.60;99.90;;;;;;5057187;28;20204;-77
2021/08/25 00:07:45;;;;;;;10.13;5.80;;;13.60;99.90;;;;;;5054290;28;20662;-75
2021/08/25 00:10:12;;;;;;;6.70;4.93;;;13.60;99.90;;;;;;5058760;28;20200;-78
2021/08/25 00:12:40;;;;;;;9.37;5.60;;;13.60;99.90;;;;;;5058920;28;20208;-76
2021/08/25 00:15:08;;;;;;;10.33;6.27;;;13.60;99.90;;;;;;5055322;28;20286;-78
2021/08/25 00:17:37;;;;;;;10.47;6.57;;;13.50;99.90;;;;;;5055898;28;20236;-79
2021/08/25 00:20:05;;;;;;;8.00;5.50;;;13.50;99.90;;;;;;5059116;28;20611;-76
2021/08/25 00:22:32;;;;;;;8.57;5.70;;;13.50;99.90;;;;;;5058057;28;20195;-77
2021/08/25 00:24:58;;;;;;;10.17;5.73;;;13.40;99.90;;;;;;5057625;28;20197;-77
2021/08/25 00:27:25;;;;;;;12.80;5.97;;;13.40;99.90;;;;;;5055069;28;20727;-76
2021/08/25 00:29:52;;;;;;;9.80;5.77;;;13.30;99.90;;;;;;5055653;28;20200;-75
2021/08/25 00:32:19;;;;;;;12.67;6.27;;;13.30;99.90;;;;;;5063178;28;20197;-76
2021/08/25 00:34:47;;;;;;;8.77;6.00;;;13.30;99.90;;;;;;5055646;28;20255;-75
2021/08/25 00:37:14;;;;;;;10.83;5.80;;;13.30;99.90;;;;;;5053881;28;20252;-79
2021/08/25 00:39:41;;;;;;;10.10;6.20;;;13.30;99.90;;;;;;5053005;28;20610;-79
2021/08/25 00:42:09;;;;;;;14.37;6.20;;;13.20;99.90;;;;;;5058729;28;20594;-79
2021/08/25 00:44:36;;;;;;;11.03;6.40;;;13.20;99.90;;;;;;5057007;28;20277;-78
2021/08/25 00:47:03;;;;;;;11.97;6.50;;;13.20;99.90;;;;;;5062544;28;20210;-78
2021/08/25 00:49:30;;;;;;;9.27;6.00;;;13.20;99.90;;;;;;5063508;28;20325;-77
2021/08/25 00:51:58;;;;;;;10.97;6.23;;;13.20;99.90;;;;;;5087748;28;20227;-79
2021/08/25 00:54:25;;;;;;;9.33;5.97;;;13.20;99.90;;;;;;5086059;28;20290;-78
2021/08/25 00:56:53;;;;;;;8.73;6.37;;;13.10;99.90;;;;;;5083093;28;20309;-78
2021/08/25 00:59:20;;;;;;;10.90;6.17;;;13.10;99.90;;;;;;5087732;28;20290;-78
2021/08/25 01:02:03;;;;;;;10.63;6.20;;;13.10;99.90;;;;;;5081741;28;20223;-78
2021/08/25 01:04:36;;;;;;;10.00;6.67;;;13.00;99.90;;;;;;5078670;28;20282;-79
2021/08/25 01:07:04;;;;;;;10.80;6.70;;;13.00;99.90;;;;;;5083460;28;20247;-77
2021/08/25 01:09:31;;;;;;;12.57;6.50;;;13.00;99.90;;;;;;5087779;28;20712;-79
2021/08/25 01:12:00;;;;;;;9.53;6.50;;;12.90;99.90;;;;;;5082387;28;20559;-76
2021/08/25 01:14:28;;;;;;;10.53;6.70;;;12.90;99.90;;;;;;5087443;28;20247;-77
2021/08/25 01:16:56;;;;;;;9.53;6.50;;;12.90;99.90;;;;;;5074060;28;20694;-78
2021/08/25 01:19:26;;;;;;;9.03;6.10;;;12.90;99.90;;;;;;5081261;28;20230;-76
2021/08/25 01:21:53;;;;;;;12.30;6.80;;;12.90;99.90;;;;;;5081854;28;20239;-79
2021/08/25 01:24:22;;;;;;;13.57;6.67;;;12.90;99.90;;;;;;5085773;28;20233;-77
2021/08/25 01:26:53;;;;;;;10.00;6.50;;;13.10;99.90;;;;;;5085706;28;20230;-77
2021/08/25 01:29:26;;;;;;;12.30;6.93;;;13.20;99.90;;;;;;5084684;28;20716;-78
2021/08/25 01:31:54;;;;;;;9.70;7.07;;;13.00;99.90;;;;;;5087219;28;20234;-76
2021/08/25 01:34:21;;;;;;;11.10;7.40;;;12.90;99.90;;;;;;5092642;28;20684;-79
2021/08/25 01:36:50;;;;;;;14.80;6.83;;;13.00;99.90;;;;;;5078861;28;20257;-75
2021/08/25 01:39:17;;;;;;;15.60;7.07;;;12.90;99.90;;;;;;5092744;28;20294;-76
2021/08/25 01:41:44;;;;;;;10.30;7.10;;;12.80;99.90;;;;;;5080219;28;20757;-77
2021/08/25 01:44:11;;;;;;;13.77;7.60;;;12.70;99.90;;;;;;5096517;28;20217;-78
2021/08/25 01:46:40;;;;;;;9.87;6.63;;;12.70;99.90;;;;;;5082451;28;20231;-76
2021/08/25 01:49:09;;;;;;;10.33;6.87;;;12.70;99.90;;;;;;5096692;28;20195;-77
2021/08/25 01:51:37;;;;;;;10.70;6.80;;;12.60;99.90;;;;;;5096611;28;20226;-76
2021/08/25 01:54:04;;;;;;;12.80;7.13;;;12.60;99.90;;;;;;5096525;28;20195;-76
2021/08/25 01:56:31;;;;;;;10.63;6.93;;;12.60;99.90;;;;;;5096321;28;20238;-77
2021/08/25 01:58:59;;;;;;;13.90;7.20;;;12.50;99.90;;;;;;5096355;28;20282;-76
2021/08/25 02:01:26;;;;;;;10.87;6.43;;;12.50;99.90;;;;;;5096718;28;20271;-76
2021/08/25 02:03:54;;;;;;;12.77;7.50;;;12.50;99.90;;;;;;5096451;28;20194;-79
2021/08/25 02:06:21;;;;;;;10.30;7.27;;;12.50;99.90;;;;;;5096629;28;20615;-77
2021/08/25 02:08:48;;;;;;;10.87;6.47;;;12.40;99.90;;;;;;5096238;28;20238;-76
2021/08/25 02:11:15;;;;;;;13.17;6.77;;;12.40;99.90;;;;;;5096503;28;20282;-78
2021/08/25 02:13:42;;;;;;;12.47;7.10;;;12.40;99.90;;;;;;5096310;28;20660;-78
2021/08/25 02:16:09;;;;;;;13.13;7.07;;;12.40;99.90;;;;;;5096320;28;20219;-77
2021/08/25 02:18:36;;;;;;;11.63;7.53;;;12.40;99.90;;;;;;5096180;28;20676;-76
2021/08/25 02:21:05;;;;;;;13.90;7.27;;;12.40;99.90;;;;;;5095817;28;20199;-77
2021/08/25 02:23:31;;;;;;;13.47;7.30;;;12.50;99.90;;;;;;5096635;28;20206;-77
2021/08/25 02:25:58;;;;;;;15.23;7.00;;;12.60;99.90;;;;;;5096100;28;20198;-76
2021/08/25 02:28:25;;;;;;;14.33;7.40;;;12.50;99.90;;;;;;5096148;28;20203;-79
2021/08/25 02:30:52;;;;;;;14.73;7.57;;;12.40;99.90;;;;;;5095723;28;20298;-76
2021/08/25 02:33:19;;;;;;;11.10;7.20;;;12.30;99.90;;;;;;5095588;28;20654;-76
2021/08/25 02:35:46;;;;;;;11.80;7.73;;;12.30;99.90;;;;;;5094952;28;20211;-78
2021/08/25 02:38:15;;;;;;;13.47;7.33;;;12.30;99.90;;;;;;5080691;28;20679;-77
2021/08/25 02:40:42;;;;;;;13.03;8.27;;;12.30;99.90;;;;;;5092558;28;20226;-75
2021/08/25 02:43:09;;;;;;;11.07;7.37;;;12.30;99.90;;;;;;5095943;28;20206;-78
2021/08/25 02:45:36;;;;;;;10.27;7.07;;;12.40;99.90;;;;;;5095453;28;20282;-78
2021/08/25 02:48:03;;;;;;;13.07;7.63;;;12.40;99.90;;;;;;5083633;28;20203;-78
2021/08/25 02:50:30;;;;;;;16.43;8.20;;;12.40;99.90;;;;;;5093548;28;20264;-77
2021/08/25 02:52:57;;;;;;;14.63;7.43;;;12.30;99.90;;;;;;5095389;28;20619;-75
2021/08/25 02:55:25;;;;;;;11.83;8.27;;;12.30;99.90;;;;;;5094985;28;20282;-78
2021/08/25 02:57:52;;;;;;;12.17;7.77;;;12.20;99.90;;;;;;5095565;28;20262;-77
2021/08/25 03:00:19;;;;;;;11.40;7.70;;;12.20;99.90;;;;;;5095510;28;20203;-77
2021/08/25 03:02:46;;;;;;;11.40;7.53;;;12.20;99.90;;;;;;5095367;28;20199;-78
2021/08/25 03:05:13;;;;;;;15.33;8.20;;;12.20;99.90;;;;;;5095510;28;20226;-77
2021/08/25 03:07:40;;;;;;;11.90;7.43;;;12.30;99.90;;;;;;5095057;28;20206;-76
2021/08/25 03:10:07;;;;;;;13.00;7.90;;;12.30;99.90;;;;;;5095211;28;20202;-79
2021/08/25 03:12:36;;;;;;;12.03;7.73;;;12.30;99.90;;;;;;5066613;28;20684;-77
2021/08/25 03:15:03;;;;;;;11.37;7.27;;;12.30;99.90;;;;;;5095028;28;20199;-77
2021/08/25 03:17:30;;;;;;;14.37;7.53;;;12.20;99.90;;;;;;5080521;28;20630;-79
2021/08/25 03:19:57;;;;;;;10.90;7.30;;;12.20;99.90;;;;;;5095279;28;20282;-79
2021/08/25 03:22:24;;;;;;;12.50;7.00;;;12.20;99.90;;;;;;5094892;28;20252;-77
2021/08/25 03:24:51;;;;;;;15.13;7.33;;;12.20;99.90;;;;;;5095271;28;20209;-76
2021/08/25 03:27:18;;;;;;;13.13;7.87;;;12.10;99.90;;;;;;5094987;28;20206;-78
2021/08/25 03:29:46;;;;;;;11.10;6.90;;;12.10;99.90;;;;;;5094602;28;20205;-79
2021/08/25 03:32:13;;;;;;;15.10;7.70;;;12.00;99.90;;;;;;5095197;28;20233;-77
2021/08/25 03:34:40;;;;;;;11.97;7.70;;;12.00;99.90;;;;;;5094890;28;20641;-79
2021/08/25 03:37:07;;;;;;;12.87;7.83;;;12.00;99.90;;;;;;5094774;28;20254;-77
2021/08/25 03:39:34;;;;;;;13.83;8.37;;;12.10;99.90;;;;;;5094989;28;20229;-77
2021/08/25 03:42:01;;;;;;;13.63;8.13;;;12.20;99.90;;;;;;5083902;28;20544;-78
2021/08/25 03:44:28;;;;;;;10.83;7.63;;;12.20;99.90;;;;;;5095007;28;20654;-79
2021/08/25 03:46:57;;;;;;;13.73;8.40;;;12.10;99.90;;;;;;5094163;28;20209;-78
2021/08/25 03:49:24;;;;;;;16.00;8.80;;;12.10;99.90;;;;;;5094773;28;20298;-75
2021/08/25 03:51:51;;;;;;;14.17;8.20;;;12.10;99.90;;;;;;5094469;28;20223;-77
2021/08/25 03:54:18;;;;;;;13.67;8.67;;;12.10;99.90;;;;;;5094624;28;20278;-76
2021/08/25 03:56:45;;;;;;;12.93;8.53;;;12.10;99.90;;;;;;5094088;28;20314;-78
2021/08/25 03:59:12;;;;;;;14.23;8.03;;;12.10;99.90;;;;;;5094251;28;20641;-78
2021/08/25 04:01:39;;;;;;;12.47;8.37;;;12.00;99.90;;;;;;5094613;28;20210;-76
2021/08/25 04:04:08;;;;;;;14.20;8.73;;;11.90;99.90;;;;;;5089935;28;20194;-80
2021/08/25 04:06:36;;;;;;;11.33;8.07;;;11.90;99.90;;;;;;5093567;28;20210;-78
2021/08/25 04:09:04;;;;;;;13.17;9.10;;;11.90;99.90;;;;;;5093874;28;20198;-78
2021/08/25 04:11:32;;;;;;;14.03;8.97;;;11.80;99.90;;;;;;5094291;28;20226;-79
2021/08/25 04:13:59;;;;;;;13.40;8.43;;;11.80;99.90;;;;;;5093738;28;20198;-77
2021/08/25 04:16:26;;;;;;;15.37;9.10;;;11.70;99.90;;;;;;5094048;28;20250;-76
2021/08/25 04:18:53;;;;;;;11.93;8.83;;;11.70;99.90;;;;;;5094243;28;20234;-79
2021/08/25 04:21:21;;;;;;;14.67;8.77;;;11.60;99.90;;;;;;5094313;28;20281;-77
2021/08/25 04:23:48;;;;;;;13.70;9.37;;;11.60;99.90;;;;;;5093963;28;20282;-79
2021/08/25 04:26:15;;;;;;;15.70;9.63;;;11.60;99.90;;;;;;5093583;28;20191;-76
2021/08/25 04:28:43;;;;;;;18.10;9.03;;;11.60;99.90;;;;;;5093199;28;20295;-77
2021/08/25 04:31:10;;;;;;;15.67;9.33;;;11.70;99.90;;;;;;5093579;28;20190;-79
2021/08/25 04:33:37;;;;;;;17.87;9.27;;;11.70;99.90;;;;;;5093892;28;20290;-77
2021/08/25 04:36:05;;;;;;;14.17;9.03;;;11.70;99.90;;;;;;5093429;28;20285;-77
2021/08/25 04:38:33;;;;;;;13.30;8.77;;;11.70;99.90;;;;;;5093365;28;20254;-76
2021/08/25 04:41:00;;;;;;;13.97;9.23;;;11.80;99.90;;;;;;5085618;28;20294;-77
2021/08/25 04:43:27;;;;;;;15.47;9.77;;;11.80;99.90;;;;;;5093512;28;20211;-78
2021/08/25 04:45:54;;;;;;;13.07;9.00;;;11.90;99.90;;;;;;5093732;28;20668;-78
2021/08/25 04:48:21;;;;;;;17.43;9.87;;;11.90;99.90;;;;;;5093215;28;20237;-76
2021/08/25 04:50:48;;;;;;;16.27;10.30;;;12.00;99.90;;;;;;5093605;28;20198;-78
2021/08/25 04:53:16;;;;;;;16.20;9.73;;;11.90;99.90;;;;;;5092384;28;20205;-77
2021/08/25 04:55:44;;;;;;;14.43;9.30;;;11.80;99.90;;;;;;5080044;28;20210;-77
2021/08/25 04:58:11;;;;;;;14.00;9.70;;;11.80;99.90;;;;;;5093344;28;20244;-77
2021/08/25 05:00:38;;;;;;;11.90;8.97;;;11.70;99.90;;;;;;5093438;28;20302;-76
2021/08/25 05:03:05;;;;;;;19.73;9.50;;;11.80;99.90;;;;;;5093258;28;20206;-77
2021/08/25 05:05:32;;;;;;;13.97;9.30;;;11.90;99.90;;;;;;5079188;28;20203;-79
2021/08/25 05:07:59;;;;;;;15.50;9.63;;;12.00;99.90;;;;;;5092322;28;20650;-79
2021/08/25 05:10:26;;;;;;;16.40;9.57;;;12.00;99.90;;;;;;5093151;28;20728;-77
2021/08/25 05:12:54;;;;;;;15.30;9.57;;;12.00;99.90;;;;;;5084048;28;20303;-79
2021/08/25 05:15:21;;;;;;;12.90;9.53;;;12.10;99.90;;;;;;5072963;28;20664;-77
2021/08/25 05:17:48;;;;;;;11.90;8.73;;;12.50;99.90;;;;;;5091722;28;20233;-79
2021/08/25 05:20:14;;;;;;;13.60;8.53;;;12.90;99.90;;;;;;5079480;28;20286;-78
2021/08/25 05:22:45;;;;;;;10.73;7.73;;;13.50;99.90;;;;;;5088725;28;20201;-78
2021/08/25 05:25:12;;;;;;;14.60;7.77;;;14.00;99.90;;;;;;5089010;28;20232;-78
2021/08/25 05:27:39;;;;;;;14.20;7.10;;;14.70;99.90;;;;;;5088174;28;20226;-79
2021/08/25 05:30:09;;;;;;;11.03;7.23;;;15.40;99.90;;;;;;5089150;28;20199;-76
2021/08/25 05:32:36;;;;;;;11.53;7.30;;;15.40;99.90;;;;;;5085886;28;20283;-79
2021/08/25 05:35:03;;;;;;;10.80;7.30;;;15.10;99.90;;;;;;5089102;28;20241;-79
2021/08/25 05:37:33;;;;;;;11.70;7.50;;;15.10;99.90;;;;;;5085037;28;20318;-78
2021/08/25 05:40:02;;;;;;;12.40;7.60;;;15.00;99.90;;;;;;5088476;28;20194;-78
2021/08/25 05:42:29;;;;;;;13.53;8.23;;;14.60;99.90;;;;;;5082164;28;20199;-79
2021/08/25 05:44:55;;;;;;;11.90;7.83;;;14.40;99.90;;;;;;5068216;28;20293;-77
2021/08/25 05:47:24;;;;;;;13.70;7.23;;;14.00;99.90;;;;;;5092250;28;20229;-78
2021/08/25 05:49:51;;;;;;;12.93;8.70;;;13.60;99.90;;;;;;5092350;28;20202;-79
2021/08/25 05:52:18;;;;;;;18.10;8.30;;;13.50;99.90;;;;;;5092628;28;20278;-77
2021/08/25 05:54:45;;;;;;;14.30;8.73;;;13.40;99.90;;;;;;5092633;28;20202;-78
2021/08/25 05:57:11;;;;;;;15.47;8.90;;;13.40;99.90;;;;;;5092469;28;20222;-78
2021/08/25 05:59:38;;;;;;;15.00;7.93;;;13.30;99.90;;;;;;5091951;28;20582;-78
2021/08/25 06:02:05;;;;;;;13.93;9.07;;;13.30;99.90;;;;;;5092122;28;20203;-79
2021/08/25 06:04:33;;;;;;;19.00;9.57;;;13.30;99.90;;;;;;5091965;28;20203;-77
2021/08/25 06:07:00;;;;;;;13.37;9.13;;;13.30;99.90;;;;;;5084783;28;20265;-77
2021/08/25 06:09:27;;;;;;;16.87;9.47;;;13.20;99.90;;;;;;5084784;28;20230;-78
2021/08/25 06:11:54;;;;;;;15.07;9.57;;;13.30;99.90;;;;;;5069351;28;20245;-76
2021/08/25 06:14:21;;;;;;;19.27;10.77;;;13.40;99.90;;;;;;5069600;28;20227;-76
2021/08/25 06:16:48;;;;;;;14.40;9.27;;;13.40;99.90;;;;;;5071889;28;20656;-78
2021/08/25 06:19:15;;;;;;;16.37;9.87;;;13.20;99.90;;;;;;5069403;28;20632;-77
2021/08/25 06:21:46;;;;;;;19.77;9.83;;;13.20;99.90;;;;;;5071459;28;20664;-78
2021/08/25 06:24:13;;;;;;;14.83;10.30;;;13.30;99.90;;;;;;5064641;28;20280;-78
2021/08/25 06:26:41;;;;;;;14.67;10.20;;;13.40;99.90;;;;;;5071711;28;20248;-78
2021/08/25 06:29:08;;;;;;;18.17;10.60;;;13.40;99.90;;;;;;5073106;28;20207;-78
2021/08/25 06:31:35;;;;;;;16.67;10.13;;;13.40;99.90;;;;;;5075681;28;20278;-78
2021/08/25 06:34:02;;;;;;;24.83;11.13;;;13.50;99.90;;;;;;5067980;28;20200;-78
2021/08/25 06:36:29;;;;;;;24.70;10.40;;;13.70;99.90;;;;;;5083793;28;20234;-79
2021/08/25 06:38:58;;;;;;;22.33;11.30;;;13.80;99.90;;;;;;5084111;28;20719;-79
2021/08/25 06:41:25;;;;;;;18.47;10.60;;;13.80;99.90;;;;;;5084363;28;20233;-75
2021/08/25 06:43:52;;;;;;;39.83;11.63;;;13.80;99.90;;;;;;5095093;28;20242;-78
2021/08/25 06:46:18;;;;;;;26.47;11.73;;;13.90;99.90;;;;;;5093707;28;20697;-78
2021/08/25 06:48:45;;;;;;;28.07;11.30;;;14.10;99.90;;;;;;5095316;28;20289;-79
2021/08/25 06:51:12;;;;;;;21.33;11.37;;;14.20;99.90;;;;;;5094609;28;20288;-79
2021/08/25 06:53:39;;;;;;;29.23;11.57;;;14.40;99.90;;;;;;5094303;28;20752;-77
2021/08/25 06:56:07;;;;;;;23.10;11.87;;;14.40;99.90;;;;;;5094465;28;20241;-76
2021/08/25 06:58:34;;;;;;;28.50;10.63;;;14.40;99.90;;;;;;5093609;28;20305;-78
2021/08/25 07:01:01;;;;;;;27.03;11.43;;;14.40;99.90;;;;;;5095390;28;20230;-78
2021/08/25 07:03:28;;;;;;;27.33;12.30;;;14.60;99.90;;;;;;5090155;28;20207;-79
2021/08/25 07:05:55;;;;;;;21.23;10.57;;;14.60;99.90;;;;;;5086377;28;20230;-78
2021/08/25 07:08:22;;;;;;;24.17;11.70;;;14.80;99.90;;;;;;5082266;28;20228;-77
2021/08/25 07:10:49;;;;;;;21.03;10.70;;;14.80;99.90;;;;;;5095397;28;20593;-78
2021/08/25 07:13:18;;;;;;;21.30;10.57;;;14.60;99.90;;;;;;5094993;28;20222;-78
2021/08/25 07:15:45;;;;;;;20.93;10.97;;;14.70;99.90;;;;;;5089718;28;20230;-76
2021/08/25 07:18:12;;;;;;;19.37;10.30;;;14.80;99.90;;;;;;5074783;28;20310;-80
2021/08/25 07:20:39;;;;;;;19.13;10.07;;;15.00;99.90;;;;;;5074674;28;20290;-78
2021/08/25 07:23:06;;;;;;;21.07;10.53;;;15.10;99.90;;;;;;5074539;28;20227;-78
2021/08/25 07:25:33;;;;;;;19.83;9.43;;;15.30;99.90;;;;;;5074785;28;20627;-77
2021/08/25 07:27:59;;;;;;;16.17;9.67;;;15.20;99.90;;;;;;5073734;28;20198;-78
2021/08/25 07:30:28;;;;;;;20.93;10.10;;;15.30;99.90;;;;;;5074132;28;20294;-79
2021/08/25 07:32:55;;;;;;;15.57;9.50;;;15.40;99.90;;;;;;5073813;28;20290;-78
2021/08/25 07:35:23;;;;;;;15.60;10.00;;;15.40;99.90;;;;;;5073361;28;20256;-76
2021/08/25 07:37:50;;;;;;;15.07;9.03;;;15.50;99.90;;;;;;5076036;28;20208;-79
2021/08/25 07:40:17;;;;;;;15.93;9.27;;;15.60;99.90;;;;;;5072969;28;20200;-79
2021/08/25 07:42:44;;;;;;;13.73;9.07;;;15.70;99.90;;;;;;5072519;28;20520;-78
2021/08/25 07:45:12;;;;;;;12.80;8.57;;;15.70;99.90;;;;;;5073271;28;20191;-78
2021/08/25 07:47:40;;;;;;;14.10;9.13;;;15.80;99.90;;;;;;5073238;28;20204;-79
2021/08/25 07:50:08;;;;;;;18.27;9.50;;;15.90;99.90;;;;;;5073081;28;20195;-80
2021/08/25 07:52:35;;;;;;;16.10;8.90;;;16.00;99.90;;;;;;5073761;28;20231;-78
2021/08/25 07:55:02;;;;;;;14.63;9.70;;;16.10;99.90;;;;;;5073805;28;20200;-77
2021/08/25 07:57:29;;;;;;;13.27;9.17;;;16.20;99.90;;;;;;5073235;28;20272;-77
2021/08/25 07:59:56;;;;;;;14.77;8.90;;;16.20;99.90;;;;;;5073277;28;20716;-77
2021/08/25 08:02:23;;;;;;;13.87;9.13;;;16.20;99.90;;;;;;5073878;28;20211;-78
2021/08/25 08:04:52;;;;;;;13.03;8.50;;;16.40;99.90;;;;;;5081218;28;20278;-77
2021/08/25 08:07:18;;;;;;;15.17;7.60;;;16.50;99.90;;;;;;5093192;28;20275;-79
2021/08/25 08:09:45;;;;;;;11.87;7.90;;;16.70;99.90;;;;;;5075326;28;20652;-77
2021/08/25 08:12:14;;;;;;;11.43;7.63;;;16.70;99.90;;;;;;5073373;28;20200;-76
2021/08/25 08:14:41;;;;;;;15.27;8.03;;;16.70;99.90;;;;;;5072892;28;20219;-78
2021/08/25 08:17:08;;;;;;;13.63;7.73;;;16.70;99.90;;;;;;5073083;28;20286;-78
2021/08/25 08:19:35;;;;;;;13.50;7.57;;;16.80;99.90;;;;;;5072070;28;20263;-79
2021/08/25 08:22:04;;;;;;;15.57;7.47;;;16.80;99.90;;;;;;5073098;28;20212;-77
2021/08/25 08:24:31;;;;;;;15.60;8.10;;;16.90;99.90;;;;;;5072431;28;20196;-76
2021/08/25 08:26:59;;;;;;;16.50;8.40;;;16.90;99.90;;;;;;5072533;28;20203;-79
2021/08/25 08:29:26;;;;;;;12.80;8.27;;;17.20;99.90;;;;;;5072888;28;20195;-78
2021/08/25 08:31:53;;;;;;;14.23;7.70;;;17.50;99.90;;;;;;5072617;28;20252;-78
2021/08/25 08:34:20;;;;;;;12.43;7.10;;;18.40;99.90;;;;;;5072512;28;20286;-77
2021/08/25 08:36:47;;;;;;;12.93;7.87;;;20.20;99.90;;;;;;5072747;28;20334;-76
2021/08/25 08:39:15;;;;;;;14.27;7.60;;;22.00;99.90;;;;;;5071391;28;20232;-78
2021/08/25 08:41:43;;;;;;;12.85;6.93;;;22.90;99.90;;;;;;5072362;28;20287;-76
2021/08/25 08:44:11;;;;;;;13.15;7.35;;;23.20;99.90;;;;;;5072406;28;20238;-77
2021/08/25 08:46:40;;;;;;;10.13;7.57;;;24.30;99.90;;;;;;5076210;28;20279;-78
2021/08/25 08:49:08;;;;;;;11.63;7.68;;;24.20;99.90;;;;;;5081632;28;20206;-77
2021/08/25 08:51:37;;;;;;;14.55;7.45;;;24.70;99.90;;;;;;5073838;28;20327;-78
2021/08/25 08:54:04;;;;;;;10.35;6.57;;;24.60;99.90;;;;;;5074397;28;20199;-77
2021/08/25 08:56:33;;;;;;;10.15;6.45;;;24.60;99.90;;;;;;5072838;28;20203;-77
2021/08/25 08:59:00;;;;;;;12.40;6.80;;;25.40;99.90;;;;;;5073266;28;20218;-77
2021/08/25 09:01:28;;;;;;;12.82;6.30;;;26.50;99.90;;;;;;5071996;28;20227;-82
2021/08/25 09:03:55;;;;;;;10.45;6.00;;;26.30;99.90;;;;;;5072744;28;20211;-78
2021/08/25 09:06:22;;;;;;;8.80;6.10;;;26.00;99.90;;;;;;5076259;28;20195;-78
2021/08/25 09:08:58;;;;;;;14.00;5.57;;;26.40;99.90;;;;;;5080203;28;20669;-79
2021/08/25 09:11:25;;;;;;;11.40;5.88;;;26.10;99.90;;;;;;5068334;28;20633;-79
2021/08/25 09:13:53;;;;;;;10.05;5.80;;;25.60;99.90;;;;;;5071355;28;20288;-78
2021/08/25 09:16:30;;;;;;;15.15;5.78;;;25.20;99.90;;;;;;5070162;28;20227;-80
2021/08/25 09:19:02;;;;;;;8.55;5.47;;;25.90;99.90;;;;;;5066289;28;20259;-78
2021/08/25 09:21:34;;;;;;;13.90;5.50;;;25.30;99.90;;;;;;5071812;28;20245;-79
2021/08/25 09:24:01;;;;;;;8.77;5.45;;;25.20;99.90;;;;;;5071153;28;20275;-79
2021/08/25 09:26:28;;;;;;;10.30;5.60;;;25.00;99.90;;;;;;5069917;28;20283;-76
2021/08/25 09:29:16;;;;;;;8.50;4.93;;;24.70;99.90;;;;;;5070864;28;20625;-77
2021/08/25 09:31:44;;;;;;;7.97;4.80;;;25.30;99.90;;;;;;5072000;28;20666;-79
2021/08/25 09:34:25;;;;;;;11.55;4.93;;;25.10;99.90;;;;;;5071925;28;20195;-79
2021/08/25 09:37:05;;;;;;;18.80;5.97;;;24.80;99.90;;;;;;5052213;28;20188;-79
2021/08/25 09:39:32;;;;;;;8.32;4.55;;;24.90;99.90;;;;;;5052240;28;20326;-77
2021/08/25 09:42:00;;;;;;;8.40;4.97;;;24.80;99.90;;;;;;5057400;28;20286;-77
2021/08/25 09:44:28;;;;;;;7.47;4.22;;;24.50;99.90;;;;;;5076261;28;20231;-77
2021/08/25 09:46:55;;;;;;;8.63;5.30;;;25.80;99.90;;;;;;5077868;28;20230;-77
2021/08/25 09:49:22;;;;;;;27.77;6.43;;;26.50;99.90;;;;;;5081676;28;20283;-77
2021/08/25 09:51:50;;;;;;;8.68;5.10;;;27.10;99.90;;;;;;5080547;28;20656;-78
2021/08/25 09:54:19;;;;;;;11.48;5.57;;;26.90;99.90;;;;;;5076993;28;20200;-78
2021/08/25 09:56:46;;;;;;;17.00;5.20;;;26.20;99.90;;;;;;5075970;28;20504;-78
2021/08/25 09:59:14;;;;;;;8.57;4.63;;;26.30;99.90;;;;;;5074263;28;20394;-78
2021/08/25 10:01:45;;;;;;;6.78;4.40;;;25.30;99.90;;;;;;5081504;28;20652;-78
2021/08/25 10:04:14;;;;;;;7.85;4.60;;;24.60;99.90;;;;;;5084741;28;20640;-77
2021/08/25 10:06:43;;;;;;;10.02;4.30;;;24.90;99.90;;;;;;5073792;28;20299;-78
2021/08/25 10:09:18;;;;;;;8.45;4.38;;;25.80;99.90;;;;;;5066976;28;20318;-77
2021/08/25 10:11:47;;;;;;;11.38;4.68;;;26.30;99.90;;;;;;5073506;28;20205;-78
2021/08/25 10:14:16;;;;;;;8.55;4.30;;;26.00;99.90;;;;;;5082394;28;20196;-78
2021/08/25 10:16:46;;;;;;;10.00;4.32;;;26.40;99.90;;;;;;5076019;28;20225;-78
2021/08/25 10:19:39;;;;;;;5.55;3.63;;;26.80;99.90;;;;;;5079490;28;20222;-78
2021/08/25 10:22:25;;;;;;;8.60;4.43;;;26.70;99.90;;;;;;5060615;28;20301;-77
2021/08/25 10:25:09;;;;;;;8.85;4.03;;;25.90;99.90;;;;;;5071238;28;20208;-78
2021/08/25 10:27:56;;;;;;;6.88;4.00;;;25.90;99.90;;;;;;5071880;28;20662;-77
2021/08/25 10:30:24;;;;;;;6.85;4.20;;;26.90;99.90;;;;;;5076251;28;20675;-79
2021/08/25 10:33:12;;;;;;;4.10;3.20;;;27.20;99.90;;;;;;5076300;28;20210;-80
2021/08/25 10:35:42;;;;;;;4.40;3.08;;;26.50;99.90;;;;;;5076860;28;20734;-79
2021/08/25 10:38:24;;;;;;;6.53;3.35;;;26.80;99.90;;;;;;5081112;28;20260;-77
2021/08/25 10:40:54;;;;;;;5.68;3.25;;;26.90;99.90;;;;;;5078345;28;20199;-81
2021/08/25 10:43:44;;;;;;;6.20;4.18;;;26.80;99.90;;;;;;5080487;28;20210;-78
2021/08/25 10:46:14;;;;;;;10.10;4.05;;;26.80;99.90;;;;;;5079780;28;20284;-79
2021/08/25 10:48:56;;;;;;;7.00;3.38;;;26.70;99.90;;;;;;5080270;28;20223;-79
2021/08/25 10:51:37;;;;;;;7.53;3.80;;;26.70;99.90;;;;;;5076677;28;20278;-81
2021/08/25 10:54:10;;;;;;;4.75;3.60;;;26.80;99.90;;;;;;5063093;28;20207;-80
2021/08/25 10:56:42;;;;;;;5.32;3.75;;;27.00;99.90;;;;;;5077307;28;20606;-79
2021/08/25 10:59:11;;;;;;;5.80;3.55;;;27.10;99.90;;;;;;5073849;28;20223;-79
2021/08/25 11:01:40;;;;;;;4.57;3.38;;;26.90;99.90;;;;;;5078409;28;20639;-78
2021/08/25 11:04:12;;;;;;;6.40;3.97;;;27.20;99.90;;;;;;5079307;28;20199;-78
2021/08/25 11:06:42;;;;;;;6.63;3.97;;;26.40;99.90;;;;;;5079251;28;20200;-81
2021/08/25 11:09:14;;;;;;;7.20;3.63;;;27.50;99.90;;;;;;5066857;28;20670;-77
2021/08/25 11:11:45;;;;;;;6.78;3.53;;;28.00;99.90;;;;;;5091290;28;20199;-78
2021/08/25 11:14:20;;;;;;;4.95;3.35;;;27.50;99.90;;;;;;5092833;28;20199;-80
2021/08/25 11:16:47;;;;;;;7.45;4.13;;;26.60;99.90;;;;;;5089889;28;20673;-79
2021/08/25 11:19:24;;;;;;;8.30;4.10;;;26.70;99.90;;;;;;5070851;28;20681;-79
2021/08/25 11:21:51;;;;;;;6.50;3.92;;;26.40;99.90;;;;;;5059392;28;20285;-77
2021/08/25 11:24:19;;;;;;;6.13;3.40;;;26.30;99.90;;;;;;5080209;28;20207;-78
2021/08/25 11:26:46;;;;;;;10.40;4.18;;;26.00;99.90;;;;;;5083402;28;20226;-77
2021/08/25 11:29:20;;;;;;;6.20;3.85;;;25.90;99.90;;;;;;5080305;28;20358;-78
2021/08/25 11:31:49;;;;;;;5.72;3.83;;;25.90;99.90;;;;;;5094064;28;20245;-79
2021/08/25 11:34:17;;;;;;;7.28;3.45;;;26.30;99.90;;;;;;5091461;28;20195;-79
2021/08/25 11:37:03;;;;;;;7.93;3.72;;;27.20;99.90;;;;;;5075200;28;20226;-79
2021/08/25 11:39:31;;;;;;;6.80;3.95;;;27.20;99.90;;;;;;5068611;28;20219;-78
2021/08/25 11:41:59;;;;;;;5.32;3.42;;;26.90;99.90;;;;;;5080431;28;20316;-81
2021/08/25 11:44:37;;;;;;;5.88;3.50;;;26.60;99.90;;;;;;5082286;28;20211;-79
2021/08/25 11:47:18;;;;;;;4.95;3.33;;;26.40;99.90;;;;;;5075876;28;20208;-76
2021/08/25 11:49:46;;;;;;;6.93;3.70;;;25.70;99.90;;;;;;5075525;28;20203;-76
2021/08/25 11:52:16;;;;;;;7.43;3.75;;;25.50;99.90;;;;;;5083964;28;20199;-77
2021/08/25 11:54:43;;;;;;;5.97;4.00;;;26.30;99.90;;;;;;5071862;28;20223;-77
2021/08/25 11:57:12;;;;;;;6.97;3.83;;;26.70;99.90;;;;;;5072989;28;20660;-78
2021/08/25 11:59:57;;;;;;;6.00;3.63;;;27.70;99.90;;;;;;5077090;28;20230;-79
2021/08/25 12:02:24;;;;;;;4.97;3.75;;;27.00;99.90;;;;;;5076264;28;20210;-79
2021/08/25 12:04:51;;;;;;;5.75;3.70;;;27.30;99.90;;;;;;5074973;28;20286;-78
2021/08/25 12:07:19;;;;;;;6.05;3.88;;;26.40;99.90;;;;;;5071933;28;20291;-78
2021/08/25 12:09:47;;;;;;;6.63;4.38;;;25.60;99.90;;;;;;5069404;28;20215;-80
2021/08/25 12:12:14;;;;;;;6.53;3.95;;;26.40;99.90;;;;;;5080000;28;20248;-77
2021/08/25 12:14:55;;;;;;;6.40;3.67;;;27.10;99.90;;;;;;5082307;28;20245;-79
2021/08/25 12:17:23;;;;;;;6.15;3.58;;;27.00;99.90;;;;;;5073097;28;20234;-77
2021/08/25 12:20:02;;;;;;;10.45;3.92;;;25.60;99.90;;;;;;5065398;28;20232;-78
2021/08/25 12:22:31;;;;;;;8.07;4.10;;;25.20;99.90;;;;;;5067417;28;20210;-78
2021/08/25 12:25:00;;;;;;;6.57;4.28;;;25.30;99.90;;;;;;5069777;28;20195;-79
2021/08/25 12:27:43;;;;;;;13.52;4.15;;;25.30;99.90;;;;;;5070821;28;20199;-77
2021/08/25 12:30:14;;;;;;;9.30;4.35;;;24.90;99.90;;;;;;5068761;28;20204;-77
2021/08/25 12:32:44;;;;;;;6.68;4.22;;;24.80;99.90;;;;;;5065632;28;20212;-77
2021/08/25 12:35:11;;;;;;;5.90;4.07;;;24.90;99.90;;;;;;5070231;28;20298;-79
2021/08/25 12:37:55;;;;;;;8.02;4.07;;;25.20;99.90;;;;;;5077054;28;20286;-76
2021/08/25 12:40:23;;;;;;;7.78;4.68;;;25.50;99.90;;;;;;5074494;28;20633;-77
2021/08/25 12:42:52;;;;;;;6.18;4.30;;;25.50;99.90;;;;;;5072008;28;20364;-77
2021/08/25 12:45:20;;;;;;;6.70;4.25;;;25.70;99.90;;;;;;5066181;28;20654;-76